sensor_id;sensor_type;location;lat;lon;timestamp;pressure;altitude;pressure_sealevel;temperature;humidity
59190;BME280;50749;51.636;4.948;2022-07-19T00:02:05;101881.34;;;23.97;50.90
59190;BME280;50749;51.636;4.948;2022-07-19T00:04:32;101877.75;;;23.97;50.71
59190;BME280;50749;51.636;4.948;2022-07-19T00:06:58;101875.31;;;23.95;50.91
59190;BME280;50749;51.636;4.948;2022-07-19T00:09:24;101875.31;;;23.95;50.87
59190;BME280;50749;51.636;4.948;2022-07-19T00:11:51;101880.91;;;23.95;50.42
59190;BME280;50749;51.636;4.948;2022-07-19T00:14:17;101868.16;;;23.94;50.64
59190;BME280;50749;51.636;4.948;2022-07-19T00:16:43;101878.13;;;23.95;50.58
59190;BME280;50749;51.636;4.948;2022-07-19T00:19:09;101875.69;;;23.93;50.53
59190;BME280;50749;51.636;4.948;2022-07-19T00:21:35;101867.31;;;23.93;50.77
59190;BME280;50749;51.636;4.948;2022-07-19T00:24:00;101875.69;;;23.93;50.18
59190;BME280;50749;51.636;4.948;2022-07-19T00:26:27;101864.91;;;23.92;50.07
59190;BME280;50749;51.636;4.948;2022-07-19T00:28:53;101856.91;;;23.90;50.55
59190;BME280;50749;51.636;4.948;2022-07-19T00:31:21;101871.69;;;23.91;50.23
59190;BME280;50749;51.636;4.948;2022-07-19T00:33:47;101864.09;;;23.91;50.52
59190;BME280;50749;51.636;4.948;2022-07-19T00:36:13;101869.69;;;23.91;50.46
59190;BME280;50749;51.636;4.948;2022-07-19T00:38:39;101868.06;;;23.90;50.08
59190;BME280;50749;51.636;4.948;2022-07-19T00:41:04;101860.88;;;23.89;50.55
59190;BME280;50749;51.636;4.948;2022-07-19T00:43:31;101870.06;;;23.90;50.39
59190;BME280;50749;51.636;4.948;2022-07-19T00:45:57;101864.84;;;23.88;50.08
59190;BME280;50749;51.636;4.948;2022-07-19T00:48:23;101867.66;;;23.88;50.01
59190;BME280;50749;51.636;4.948;2022-07-19T00:50:49;101875.22;;;23.88;49.91
59190;BME280;50749;51.636;4.948;2022-07-19T00:53:15;101864.06;;;23.88;50.49
59190;BME280;50749;51.636;4.948;2022-07-19T00:55:43;101866.84;;;23.88;50.27
59190;BME280;50749;51.636;4.948;2022-07-19T00:58:11;101869.63;;;23.88;49.99
59190;BME280;50749;51.636;4.948;2022-07-19T01:00:39;101872.44;;;23.88;50.52
59190;BME280;50749;51.636;4.948;2022-07-19T01:03:06;101872.00;;;23.86;50.21
59190;BME280;50749;51.636;4.948;2022-07-19T01:05:34;101866.41;;;23.86;50.20
59190;BME280;50749;51.636;4.948;2022-07-19T01:08:01;101868.84;;;23.87;50.12
59190;BME280;50749;51.636;4.948;2022-07-19T01:10:27;101865.22;;;23.87;50.04
59190;BME280;50749;51.636;4.948;2022-07-19T01:12:53;101869.22;;;23.86;50.31
59190;BME280;50749;51.636;4.948;2022-07-19T01:15:24;101864.81;;;23.85;50.00
59190;BME280;50749;51.636;4.948;2022-07-19T01:17:51;101857.22;;;23.85;50.29
59190;BME280;50749;51.636;4.948;2022-07-19T01:20:19;101865.59;;;23.85;49.91
59190;BME280;50749;51.636;4.948;2022-07-19T01:22:46;101855.25;;;23.86;49.87
59190;BME280;50749;51.636;4.948;2022-07-19T01:25:12;101850.41;;;23.83;49.92
59190;BME280;50749;51.636;4.948;2022-07-19T01:27:44;101864.81;;;23.85;50.18
59190;BME280;50749;51.636;4.948;2022-07-19T01:30:14;101859.22;;;23.85;49.89
59190;BME280;50749;51.636;4.948;2022-07-19T01:32:40;101857.59;;;23.84;49.89
59190;BME280;50749;51.636;4.948;2022-07-19T01:35:07;101864.81;;;23.85;50.11
59190;BME280;50749;51.636;4.948;2022-07-19T01:37:34;101864.00;;;23.84;49.70
59190;BME280;50749;51.636;4.948;2022-07-19T01:40:02;101862.38;;;23.83;50.02
59190;BME280;50749;51.636;4.948;2022-07-19T01:42:28;101860.78;;;23.82;49.92
59190;BME280;50749;51.636;4.948;2022-07-19T01:44:54;101861.59;;;23.83;50.11
59190;BME280;50749;51.636;4.948;2022-07-19T01:47:20;101863.56;;;23.82;49.62
59190;BME280;50749;51.636;4.948;2022-07-19T01:49:46;101856.78;;;23.83;50.08
59190;BME280;50749;51.636;4.948;2022-07-19T01:52:11;101856.78;;;23.83;49.75
59190;BME280;50749;51.636;4.948;2022-07-19T01:54:37;101865.97;;;23.84;49.85
59190;BME280;50749;51.636;4.948;2022-07-19T01:57:03;101859.97;;;23.82;50.00
59190;BME280;50749;51.636;4.948;2022-07-19T01:59:29;101852.00;;;23.84;49.87
59190;BME280;50749;51.636;4.948;2022-07-19T02:01:54;101858.00;;;23.82;49.80
59190;BME280;50749;51.636;4.948;2022-07-19T02:04:20;101850.41;;;23.83;50.10
59190;BME280;50749;51.636;4.948;2022-07-19T02:06:46;101841.97;;;23.79;49.48
59190;BME280;50749;51.636;4.948;2022-07-19T02:09:12;101846.00;;;23.82;49.77
59190;BME280;50749;51.636;4.948;2022-07-19T02:11:37;101842.38;;;23.81;49.97
59190;BME280;50749;51.636;4.948;2022-07-19T02:14:08;101844.03;;;23.82;49.72
59190;BME280;50749;51.636;4.948;2022-07-19T02:16:35;101852.75;;;23.81;49.98
59190;BME280;50749;51.636;4.948;2022-07-19T02:19:02;101844.38;;;23.81;49.78
59190;BME280;50749;51.636;4.948;2022-07-19T02:21:28;101842.75;;;23.80;49.61
59190;BME280;50749;51.636;4.948;2022-07-19T02:23:54;101838.78;;;23.81;49.99
59190;BME280;50749;51.636;4.948;2022-07-19T02:26:19;101839.97;;;23.80;49.53
59190;BME280;50749;51.636;4.948;2022-07-19T02:28:45;101832.75;;;23.79;49.46
59190;BME280;50749;51.636;4.948;2022-07-19T02:31:11;101834.38;;;23.80;49.73
59190;BME280;50749;51.636;4.948;2022-07-19T02:33:36;101825.22;;;23.79;49.34
59190;BME280;50749;51.636;4.948;2022-07-19T02:36:02;101833.59;;;23.79;49.66
59190;BME280;50749;51.636;4.948;2022-07-19T02:38:30;101821.22;;;23.80;49.29
59190;BME280;50749;51.636;4.948;2022-07-19T02:40:56;101826.78;;;23.80;49.53
59190;BME280;50749;51.636;4.948;2022-07-19T02:43:22;101821.59;;;23.79;49.53
59190;BME280;50749;51.636;4.948;2022-07-19T02:45:47;101817.63;;;23.80;49.41
59190;BME280;50749;51.636;4.948;2022-07-19T02:48:13;101814.84;;;23.80;49.25
59190;BME280;50749;51.636;4.948;2022-07-19T02:50:39;101818.78;;;23.79;48.94
59190;BME280;50749;51.636;4.948;2022-07-19T02:53:05;101816.00;;;23.79;49.37
59190;BME280;50749;51.636;4.948;2022-07-19T02:55:30;101812.41;;;23.78;49.42
59190;BME280;50749;51.636;4.948;2022-07-19T02:57:56;101804.41;;;23.77;49.14
59190;BME280;50749;51.636;4.948;2022-07-19T03:00:22;101802.44;;;23.77;49.32
59190;BME280;50749;51.636;4.948;2022-07-19T03:02:48;101800.44;;;23.78;49.04
59190;BME280;50749;51.636;4.948;2022-07-19T03:05:14;101806.41;;;23.76;49.70
59190;BME280;50749;51.636;4.948;2022-07-19T03:07:40;101807.19;;;23.77;48.99
59190;BME280;50749;51.636;4.948;2022-07-19T03:10:06;101814.41;;;23.78;49.09
59190;BME280;50749;51.636;4.948;2022-07-19T03:12:32;101808.41;;;23.76;49.29
59190;BME280;50749;51.636;4.948;2022-07-19T03:14:58;101802.81;;;23.76;49.23
59190;BME280;50749;51.636;4.948;2022-07-19T03:17:23;101801.19;;;23.74;49.01
59190;BME280;50749;51.636;4.948;2022-07-19T03:19:49;101804.00;;;23.74;49.14
59190;BME280;50749;51.636;4.948;2022-07-19T03:22:15;101808.41;;;23.76;48.90
59190;BME280;50749;51.636;4.948;2022-07-19T03:24:41;101804.00;;;23.74;49.13
59190;BME280;50749;51.636;4.948;2022-07-19T03:27:06;101803.19;;;23.74;48.98
59190;BME280;50749;51.636;4.948;2022-07-19T03:29:32;101802.38;;;23.73;49.37
59190;BME280;50749;51.636;4.948;2022-07-19T03:31:58;101795.19;;;23.72;49.10
59190;BME280;50749;51.636;4.948;2022-07-19T03:34:25;101792.41;;;23.72;48.86
59190;BME280;50749;51.636;4.948;2022-07-19T03:36:51;101792.78;;;23.71;48.96
59190;BME280;50749;51.636;4.948;2022-07-19T03:39:17;101791.56;;;23.72;49.04
59190;BME280;50749;51.636;4.948;2022-07-19T03:41:43;101790.78;;;23.71;49.16
59190;BME280;50749;51.636;4.948;2022-07-19T03:44:09;101793.56;;;23.71;49.51
59190;BME280;50749;51.636;4.948;2022-07-19T03:46:34;101797.56;;;23.70;49.40
59190;BME280;50749;51.636;4.948;2022-07-19T03:49:00;101794.78;;;23.70;48.91
59190;BME280;50749;51.636;4.948;2022-07-19T03:51:26;101803.94;;;23.71;49.33
59190;BME280;50749;51.636;4.948;2022-07-19T03:53:52;101793.56;;;23.71;48.99
59190;BME280;50749;51.636;4.948;2022-07-19T03:56:18;101801.53;;;23.69;49.10
59190;BME280;50749;51.636;4.948;2022-07-19T03:58:47;101795.94;;;23.69;49.04
59190;BME280;50749;51.636;4.948;2022-07-19T04:01:14;101797.94;;;23.69;49.19
59190;BME280;50749;51.636;4.948;2022-07-19T04:03:40;101804.31;;;23.69;48.99
59190;BME280;50749;51.636;4.948;2022-07-19T04:06:07;101795.88;;;23.66;48.83
59190;BME280;50749;51.636;4.948;2022-07-19T04:08:34;101805.47;;;23.68;48.90
59190;BME280;50749;51.636;4.948;2022-07-19T04:11:00;101804.69;;;23.68;48.95
59190;BME280;50749;51.636;4.948;2022-07-19T04:13:26;101804.69;;;23.68;48.90
59190;BME280;50749;51.636;4.948;2022-07-19T04:15:52;101804.69;;;23.68;49.31
59190;BME280;50749;51.636;4.948;2022-07-19T04:18:17;101805.47;;;23.68;49.25
59190;BME280;50749;51.636;4.948;2022-07-19T04:20:44;101809.47;;;23.67;49.31
59190;BME280;50749;51.636;4.948;2022-07-19T04:23:09;101805.47;;;23.68;48.85
59190;BME280;50749;51.636;4.948;2022-07-19T04:25:35;101804.69;;;23.68;49.25
59190;BME280;50749;51.636;4.948;2022-07-19T04:28:02;101801.09;;;23.67;49.32
59190;BME280;50749;51.636;4.948;2022-07-19T04:30:28;101805.47;;;23.68;49.38
59190;BME280;50749;51.636;4.948;2022-07-19T04:32:54;101801.91;;;23.68;49.27
59190;BME280;50749;51.636;4.948;2022-07-19T04:35:20;101804.69;;;23.68;49.07
59190;BME280;50749;51.636;4.948;2022-07-19T04:37:46;101804.69;;;23.68;49.09
59190;BME280;50749;51.636;4.948;2022-07-19T04:40:12;101804.69;;;23.68;48.86
59190;BME280;50749;51.636;4.948;2022-07-19T04:42:38;101805.47;;;23.68;49.05
59190;BME280;50749;51.636;4.948;2022-07-19T04:45:04;101801.91;;;23.68;48.95
59190;BME280;50749;51.636;4.948;2022-07-19T04:47:30;101801.91;;;23.68;49.42
59190;BME280;50749;51.636;4.948;2022-07-19T04:49:56;101801.47;;;23.66;50.06
59190;BME280;50749;51.636;4.948;2022-07-19T04:52:22;101797.38;;;23.60;50.20
59190;BME280;50749;51.636;4.948;2022-07-19T04:54:48;101796.16;;;23.57;50.66
59190;BME280;50749;51.636;4.948;2022-07-19T04:57:14;101797.31;;;23.56;50.27
59190;BME280;50749;51.636;4.948;2022-07-19T04:59:41;101795.66;;;23.51;50.65
59190;BME280;50749;51.636;4.948;2022-07-19T05:02:07;101793.28;;;23.53;50.16
59190;BME280;50749;51.636;4.948;2022-07-19T05:04:33;101802.91;;;23.56;50.41
59190;BME280;50749;51.636;4.948;2022-07-19T05:06:58;101797.38;;;23.60;50.45
59190;BME280;50749;51.636;4.948;2022-07-19T05:09:25;101792.22;;;23.62;50.99
59190;BME280;50749;51.636;4.948;2022-07-19T05:11:52;101787.00;;;23.60;52.07
59190;BME280;50749;51.636;4.948;2022-07-19T05:14:18;101803.00;;;23.63;52.39
59190;BME280;50749;51.636;4.948;2022-07-19T05:16:45;101802.16;;;23.59;53.04
59190;BME280;50749;51.636;4.948;2022-07-19T05:19:11;101800.84;;;23.53;53.21
59190;BME280;50749;51.636;4.948;2022-07-19T05:21:37;101797.22;;;23.49;53.56
59190;BME280;50749;51.636;4.948;2022-07-19T05:24:03;101792.38;;;23.46;53.24
59190;BME280;50749;51.636;4.948;2022-07-19T05:26:29;101803.47;;;23.42;53.34
59190;BME280;50749;51.636;4.948;2022-07-19T05:28:56;101805.81;;;23.40;53.77
59190;BME280;50749;51.636;4.948;2022-07-19T05:31:21;101802.22;;;23.40;54.19
59190;BME280;50749;51.636;4.948;2022-07-19T05:33:47;101804.28;;;23.43;54.00
59190;BME280;50749;51.636;4.948;2022-07-19T05:36:13;101796.69;;;23.43;53.65
59190;BME280;50749;51.636;4.948;2022-07-19T05:38:39;101811.47;;;23.44;53.51
59190;BME280;50749;51.636;4.948;2022-07-19T05:41:06;101802.78;;;23.49;53.49
59190;BME280;50749;51.636;4.948;2022-07-19T05:43:34;101794.84;;;23.51;53.43
59190;BME280;50749;51.636;4.948;2022-07-19T05:46:00;101791.75;;;23.56;53.10
59190;BME280;50749;51.636;4.948;2022-07-19T05:48:30;101788.56;;;23.58;53.08
59190;BME280;50749;51.636;4.948;2022-07-19T05:50:57;101783.03;;;23.61;53.12
59190;BME280;50749;51.636;4.948;2022-07-19T05:53:24;101792.22;;;23.62;53.07
59190;BME280;50749;51.636;4.948;2022-07-19T05:55:50;101791.84;;;23.63;52.88
59190;BME280;50749;51.636;4.948;2022-07-19T05:58:16;101808.22;;;23.65;52.11
59190;BME280;50749;51.636;4.948;2022-07-19T06:00:44;101799.84;;;23.65;51.89
59190;BME280;50749;51.636;4.948;2022-07-19T06:03:31;101803.69;;;23.56;50.40
59190;BME280;50749;51.636;4.948;2022-07-19T06:05:56;101810.03;;;23.53;49.91
59190;BME280;50749;51.636;4.948;2022-07-19T06:08:22;101807.63;;;23.52;49.81
59190;BME280;50749;51.636;4.948;2022-07-19T06:10:48;101804.38;;;23.50;49.29
59190;BME280;50749;51.636;4.948;2022-07-19T06:13:14;101803.53;;;23.46;48.57
59190;BME280;50749;51.636;4.948;2022-07-19T06:15:39;101802.75;;;23.45;48.29
59190;BME280;50749;51.636;4.948;2022-07-19T06:18:05;101796.34;;;23.45;48.41
59190;BME280;50749;51.636;4.948;2022-07-19T06:20:31;101799.56;;;23.47;47.37
59190;BME280;50749;51.636;4.948;2022-07-19T06:22:57;101800.31;;;23.44;47.85
59190;BME280;50749;51.636;4.948;2022-07-19T06:25:23;101804.66;;;23.41;47.47
59190;BME280;50749;51.636;4.948;2022-07-19T06:27:48;101800.19;;;23.36;47.13
59190;BME280;50749;51.636;4.948;2022-07-19T06:30:14;101805.03;;;23.40;46.76
59190;BME280;50749;51.636;4.948;2022-07-19T06:32:40;101807.81;;;23.40;46.43
59190;BME280;50749;51.636;4.948;2022-07-19T06:35:06;101802.66;;;23.42;46.79
59190;BME280;50749;51.636;4.948;2022-07-19T06:37:32;101799.94;;;23.45;46.24
59190;BME280;50749;51.636;4.948;2022-07-19T06:39:57;101798.69;;;23.43;46.28
59190;BME280;50749;51.636;4.948;2022-07-19T06:42:23;101794.66;;;23.40;46.00
59190;BME280;50749;51.636;4.948;2022-07-19T06:44:49;101796.97;;;23.34;45.77
59190;BME280;50749;51.636;4.948;2022-07-19T06:47:14;101796.53;;;23.32;46.05
59190;BME280;50749;51.636;4.948;2022-07-19T06:49:41;101800.06;;;23.29;45.87
59190;BME280;50749;51.636;4.948;2022-07-19T06:52:06;101789.66;;;23.26;45.60
59190;BME280;50749;51.636;4.948;2022-07-19T06:54:32;101791.22;;;23.24;45.66
59190;BME280;50749;51.636;4.948;2022-07-19T06:56:58;101796.13;;;23.30;45.24
59190;BME280;50749;51.636;4.948;2022-07-19T06:59:24;101788.47;;;23.27;45.41
59190;BME280;50749;51.636;4.948;2022-07-19T07:01:50;101789.22;;;23.24;45.32
59190;BME280;50749;51.636;4.948;2022-07-19T07:04:16;101794.38;;;23.22;45.11
59190;BME280;50749;51.636;4.948;2022-07-19T07:06:41;101795.53;;;23.21;45.37
59190;BME280;50749;51.636;4.948;2022-07-19T07:09:07;101796.84;;;23.27;46.21
59190;BME280;50749;51.636;4.948;2022-07-19T07:11:33;101795.38;;;23.33;47.66
59190;BME280;50749;51.636;4.948;2022-07-19T07:13:58;101800.19;;;23.36;48.37
59190;BME280;50749;51.636;4.948;2022-07-19T07:16:24;101798.59;;;23.35;48.70
59190;BME280;50749;51.636;4.948;2022-07-19T07:18:50;101782.66;;;23.36;49.98
59190;BME280;50749;51.636;4.948;2022-07-19T07:21:16;101783.44;;;23.36;49.79
59190;BME280;50749;51.636;4.948;2022-07-19T07:23:42;101780.28;;;23.38;48.37
59190;BME280;50749;51.636;4.948;2022-07-19T07:26:08;101783.44;;;23.36;48.25
59190;BME280;50749;51.636;4.948;2022-07-19T07:28:33;101772.75;;;23.39;47.32
59190;BME280;50749;51.636;4.948;2022-07-19T07:31:00;101779.97;;;23.43;47.13
59190;BME280;50749;51.636;4.948;2022-07-19T07:33:26;101774.31;;;23.40;46.84
59190;BME280;50749;51.636;4.948;2022-07-19T07:35:52;101768.38;;;23.41;46.63
59190;BME280;50749;51.636;4.948;2022-07-19T07:38:18;101773.16;;;23.41;46.61
59190;BME280;50749;51.636;4.948;2022-07-19T07:40:43;101775.53;;;23.39;46.64
59190;BME280;50749;51.636;4.948;2022-07-19T07:43:09;101775.53;;;23.39;46.47
59190;BME280;50749;51.636;4.948;2022-07-19T07:45:35;101777.91;;;23.40;46.36
59190;BME280;50749;51.636;4.948;2022-07-19T07:48:01;101782.69;;;23.40;45.83
59190;BME280;50749;51.636;4.948;2022-07-19T07:50:26;101779.53;;;23.41;45.67
59190;BME280;50749;51.636;4.948;2022-07-19T07:52:52;101776.69;;;23.37;45.44
59190;BME280;50749;51.636;4.948;2022-07-19T07:55:18;101771.44;;;23.32;45.78
59190;BME280;50749;51.636;4.948;2022-07-19T07:57:43;101777.13;;;23.40;45.88
59190;BME280;50749;51.636;4.948;2022-07-19T08:00:10;101773.91;;;23.37;45.88
59190;BME280;50749;51.636;4.948;2022-07-19T08:02:42;101767.06;;;23.35;45.72
59190;BME280;50749;51.636;4.948;2022-07-19T08:05:08;101771.13;;;23.37;45.20
59190;BME280;50749;51.636;4.948;2022-07-19T08:07:35;101770.75;;;23.39;45.28
59190;BME280;50749;51.636;4.948;2022-07-19T08:10:06;101760.75;;;23.38;45.18
59190;BME280;50749;51.636;4.948;2022-07-19T08:12:32;101762.38;;;23.39;44.95
59190;BME280;50749;51.636;4.948;2022-07-19T08:14:58;101756.78;;;23.39;45.20
59190;BME280;50749;51.636;4.948;2022-07-19T08:17:24;101767.16;;;23.39;45.08
59190;BME280;50749;51.636;4.948;2022-07-19T08:19:49;101763.59;;;23.42;45.09
59190;BME280;50749;51.636;4.948;2022-07-19T08:22:16;101752.81;;;23.40;45.15
59190;BME280;50749;51.636;4.948;2022-07-19T08:24:42;101756.41;;;23.41;44.59
59190;BME280;50749;51.636;4.948;2022-07-19T08:27:08;101758.78;;;23.39;44.64
59190;BME280;50749;51.636;4.948;2022-07-19T08:29:34;101754.78;;;23.40;45.05
59190;BME280;50749;51.636;4.948;2022-07-19T08:32:00;101748.06;;;23.41;44.73
59190;BME280;50749;51.636;4.948;2022-07-19T08:34:25;101744.44;;;23.40;44.95
59190;BME280;50749;51.636;4.948;2022-07-19T08:36:51;101735.69;;;23.42;44.62
59190;BME280;50749;51.636;4.948;2022-07-19T08:39:17;101735.69;;;23.42;44.79
59190;BME280;50749;51.636;4.948;2022-07-19T08:41:44;101748.09;;;23.44;44.47
59190;BME280;50749;51.636;4.948;2022-07-19T08:44:11;101738.09;;;23.43;44.34
59190;BME280;50749;51.636;4.948;2022-07-19T08:46:39;101735.38;;;23.47;44.71
59190;BME280;50749;51.636;4.948;2022-07-19T08:49:05;101738.09;;;23.43;44.57
59190;BME280;50749;51.636;4.948;2022-07-19T08:51:31;101733.78;;;23.46;44.42
59190;BME280;50749;51.636;4.948;2022-07-19T08:53:57;101737.38;;;23.46;44.62
59190;BME280;50749;51.636;4.948;2022-07-19T08:56:23;101731.38;;;23.44;44.76
59190;BME280;50749;51.636;4.948;2022-07-19T08:59:08;101726.16;;;23.43;44.23
59190;BME280;50749;51.636;4.948;2022-07-19T09:01:34;101732.16;;;23.45;44.31
59190;BME280;50749;51.636;4.948;2022-07-19T09:04:09;101727.00;;;23.47;44.22
59190;BME280;50749;51.636;4.948;2022-07-19T09:06:52;101727.00;;;23.47;44.14
59190;BME280;50749;51.636;4.948;2022-07-19T09:09:39;101724.22;;;23.47;44.25
59190;BME280;50749;51.636;4.948;2022-07-19T09:12:05;101726.19;;;23.46;44.30
59190;BME280;50749;51.636;4.948;2022-07-19T09:14:35;101727.00;;;23.47;44.21
59190;BME280;50749;51.636;4.948;2022-07-19T09:17:11;101726.19;;;23.46;44.56
59190;BME280;50749;51.636;4.948;2022-07-19T09:19:44;101724.66;;;23.49;44.51
59190;BME280;50749;51.636;4.948;2022-07-19T09:22:12;101722.25;;;23.47;44.11
59190;BME280;50749;51.636;4.948;2022-07-19T09:24:41;101726.25;;;23.50;44.11
59190;BME280;50749;51.636;4.948;2022-07-19T09:27:10;101722.28;;;23.51;44.28
59190;BME280;50749;51.636;4.948;2022-07-19T09:29:39;101718.72;;;23.50;44.07
59190;BME280;50749;51.636;4.948;2022-07-19T09:32:15;101718.25;;;23.48;44.18
59190;BME280;50749;51.636;4.948;2022-07-19T09:34:52;101716.72;;;23.51;44.58
59190;BME280;50749;51.636;4.948;2022-07-19T09:37:22;101711.94;;;23.51;44.43
59190;BME280;50749;51.636;4.948;2022-07-19T09:39:54;101717.50;;;23.51;43.90
59190;BME280;50749;51.636;4.948;2022-07-19T09:42:22;101716.34;;;23.52;44.14
59190;BME280;50749;51.636;4.948;2022-07-19T09:44:57;101719.94;;;23.53;44.49
59190;BME280;50749;51.636;4.948;2022-07-19T09:47:35;101715.97;;;23.54;44.02
59190;BME280;50749;51.636;4.948;2022-07-19T09:50:04;101716.34;;;23.52;44.46
59190;BME280;50749;51.636;4.948;2022-07-19T09:52:30;101714.34;;;23.53;44.51
59190;BME280;50749;51.636;4.948;2022-07-19T09:54:58;101709.56;;;23.53;44.01
59190;BME280;50749;51.636;4.948;2022-07-19T09:57:24;101709.13;;;23.51;44.49
59190;BME280;50749;51.636;4.948;2022-07-19T09:59:53;101703.19;;;23.53;44.11
59190;BME280;50749;51.636;4.948;2022-07-19T10:02:23;101701.19;;;23.53;44.37
59190;BME280;50749;51.636;4.948;2022-07-19T10:04:50;101706.41;;;23.55;43.99
59190;BME280;50749;51.636;4.948;2022-07-19T10:07:17;101706.34;;;23.51;44.50
59190;BME280;50749;51.636;4.948;2022-07-19T10:09:44;101698.47;;;23.57;44.43
59190;BME280;50749;51.636;4.948;2022-07-19T10:12:11;101699.22;;;23.54;44.29
59190;BME280;50749;51.636;4.948;2022-07-19T10:14:38;101698.47;;;23.57;44.09
59190;BME280;50749;51.636;4.948;2022-07-19T10:19:51;101694.47;;;23.58;44.43
59190;BME280;50749;51.636;4.948;2022-07-19T10:22:21;101687.31;;;23.57;44.29
59190;BME280;50749;51.636;4.948;2022-07-19T10:24:56;101687.31;;;23.57;44.37
59190;BME280;50749;51.636;4.948;2022-07-19T10:32:31;101684.13;;;23.59;44.50
59190;BME280;50749;51.636;4.948;2022-07-19T10:37:52;101683.31;;;23.58;44.35
59190;BME280;50749;51.636;4.948;2022-07-19T10:43:06;101685.38;;;23.61;44.51
59190;BME280;50749;51.636;4.948;2022-07-19T10:45:33;101671.00;;;23.59;44.50
59190;BME280;50749;51.636;4.948;2022-07-19T10:48:02;101673.41;;;23.61;44.70
59190;BME280;50749;51.636;4.948;2022-07-19T10:53:11;101666.56;;;23.58;44.75
59190;BME280;50749;51.636;4.948;2022-07-19T10:56:19;101667.44;;;23.62;44.41
59190;BME280;50749;51.636;4.948;2022-07-19T11:01:21;101660.25;;;23.61;44.43
59190;BME280;50749;51.636;4.948;2022-07-19T11:03:49;101654.66;;;23.61;44.48
59190;BME280;50749;51.636;4.948;2022-07-19T11:06:22;101653.03;;;23.60;44.80
59190;BME280;50749;51.636;4.948;2022-07-19T11:08:51;101655.84;;;23.60;44.94
59190;BME280;50749;51.636;4.948;2022-07-19T11:11:18;101649.06;;;23.61;44.77
59190;BME280;50749;51.636;4.948;2022-07-19T11:13:49;101647.84;;;23.59;44.81
59190;BME280;50749;51.636;4.948;2022-07-19T11:16:16;101643.88;;;23.60;44.72
59190;BME280;50749;51.636;4.948;2022-07-19T11:18:42;101640.28;;;23.59;44.55
59190;BME280;50749;51.636;4.948;2022-07-19T11:21:09;101634.31;;;23.61;44.89
59190;BME280;50749;51.636;4.948;2022-07-19T11:23:39;101632.34;;;23.61;44.88
59190;BME280;50749;51.636;4.948;2022-07-19T11:26:10;101630.72;;;23.60;44.73
59190;BME280;50749;51.636;4.948;2022-07-19T11:28:38;101635.50;;;23.60;44.87
59190;BME280;50749;51.636;4.948;2022-07-19T11:33:42;101637.91;;;23.61;44.73
59190;BME280;50749;51.636;4.948;2022-07-19T11:36:09;101629.53;;;23.61;44.64
59190;BME280;50749;51.636;4.948;2022-07-19T11:38:50;101624.34;;;23.60;44.76
59190;BME280;50749;51.636;4.948;2022-07-19T11:46:20;101623.53;;;23.59;44.91
59190;BME280;50749;51.636;4.948;2022-07-19T11:48:48;101623.16;;;23.61;45.04
59190;BME280;50749;51.636;4.948;2022-07-19T11:51:14;101609.59;;;23.59;45.16
59190;BME280;50749;51.636;4.948;2022-07-19T11:53:40;101611.56;;;23.59;45.11
59190;BME280;50749;51.636;4.948;2022-07-19T11:56:18;101602.00;;;23.60;44.75
59190;BME280;50749;51.636;4.948;2022-07-19T11:58:45;101598.41;;;23.59;44.95
59190;BME280;50749;51.636;4.948;2022-07-19T12:01:11;101591.22;;;23.58;45.18
59190;BME280;50749;51.636;4.948;2022-07-19T12:03:37;101583.66;;;23.59;44.75
59190;BME280;50749;51.636;4.948;2022-07-19T12:06:05;101581.69;;;23.59;44.74
59190;BME280;50749;51.636;4.948;2022-07-19T12:08:37;101576.94;;;23.63;44.94
59190;BME280;50749;51.636;4.948;2022-07-19T12:11:22;101579.50;;;23.76;45.35
59190;BME280;50749;51.636;4.948;2022-07-19T12:13:51;101579.16;;;23.81;45.44
59190;BME280;50749;51.636;4.948;2022-07-19T12:16:18;101572.81;;;23.84;45.53
59190;BME280;50749;51.636;4.948;2022-07-19T12:18:50;101568.84;;;23.85;45.36
59190;BME280;50749;51.636;4.948;2022-07-19T12:26:41;101559.41;;;23.97;46.17
59190;BME280;50749;51.636;4.948;2022-07-19T12:33:04;101552.63;;;23.98;46.56
59190;BME280;50749;51.636;4.948;2022-07-19T12:35:03;101548.25;;;24.00;46.52
59190;BME280;50749;51.636;4.948;2022-07-19T12:37:35;101549.84;;;23.98;46.48
59190;BME280;50749;51.636;4.948;2022-07-19T12:40:19;101560.19;;;23.97;46.34
59190;BME280;50749;51.636;4.948;2022-07-19T12:42:53;101554.59;;;23.97;46.56
59190;BME280;50749;51.636;4.948;2022-07-19T12:45:27;101555.81;;;23.96;46.50
59190;BME280;50749;51.636;4.948;2022-07-19T12:47:53;101549.44;;;23.96;46.22
59190;BME280;50749;51.636;4.948;2022-07-19T12:50:22;101542.63;;;23.97;46.14
59190;BME280;50749;51.636;4.948;2022-07-19T12:52:49;101545.81;;;23.95;46.80
59190;BME280;50749;51.636;4.948;2022-07-19T12:55:15;101544.63;;;23.96;46.48
59190;BME280;50749;51.636;4.948;2022-07-19T12:57:41;101543.88;;;23.99;46.56
59190;BME280;50749;51.636;4.948;2022-07-19T13:00:07;101541.09;;;23.99;46.71
59190;BME280;50749;51.636;4.948;2022-07-19T13:02:34;101527.91;;;24.00;47.01
59190;BME280;50749;51.636;4.948;2022-07-19T13:05:00;101526.00;;;24.07;46.71
59190;BME280;50749;51.636;4.948;2022-07-19T13:07:25;101526.03;;;24.11;46.64
59190;BME280;50749;51.636;4.948;2022-07-19T13:09:51;101514.88;;;24.11;46.73
59190;BME280;50749;51.636;4.948;2022-07-19T13:12:17;101514.03;;;24.10;46.69
59190;BME280;50749;51.636;4.948;2022-07-19T13:14:43;101511.69;;;24.13;46.66
59190;BME280;50749;51.636;4.948;2022-07-19T13:17:09;101506.09;;;24.13;46.40
59190;BME280;50749;51.636;4.948;2022-07-19T13:19:38;101503.72;;;24.15;46.66
59190;BME280;50749;51.636;4.948;2022-07-19T13:22:04;101502.50;;;24.16;46.95
59190;BME280;50749;51.636;4.948;2022-07-19T13:24:31;101500.97;;;24.18;46.94
59190;BME280;50749;51.636;4.948;2022-07-19T13:26:57;101500.56;;;24.20;46.47